createdAt,value
2023-03-27T00:00:10.327Z,7.72
2023-03-27T00:02:39.595Z,9.07
2023-03-27T00:05:08.099Z,6.78
2023-03-27T00:07:37.160Z,5.37
2023-03-27T00:10:05.005Z,5.60
2023-03-27T00:12:33.536Z,7.35
2023-03-27T00:15:01.694Z,6.65
2023-03-27T00:17:30.200Z,7.25
2023-03-27T00:19:59.395Z,10.00
2023-03-27T00:22:27.049Z,6.07
2023-03-27T00:24:54.848Z,9.40
2023-03-27T00:27:22.481Z,5.80
2023-03-27T00:29:50.148Z,6.67
2023-03-27T00:32:17.760Z,6.95
2023-03-27T00:34:45.510Z,7.03
2023-03-27T00:37:14.676Z,6.75
2023-03-27T00:39:42.572Z,7.00
2023-03-27T00:42:11.907Z,11.48
2023-03-27T00:44:39.882Z,11.93
2023-03-27T00:47:10.228Z,7.40
2023-03-27T00:49:38.203Z,5.85
2023-03-27T00:52:07.217Z,7.47
2023-03-27T00:54:40.210Z,9.98
2023-03-27T00:57:10.976Z,6.82
2023-03-27T00:59:41.854Z,6.85
2023-03-27T01:02:10.132Z,7.37
2023-03-27T01:04:38.829Z,5.35
2023-03-27T01:07:07.438Z,9.82
2023-03-27T01:09:36.557Z,7.15
2023-03-27T01:12:16.158Z,8.38
2023-03-27T01:14:51.596Z,5.63
2023-03-27T01:17:32.419Z,8.35
2023-03-27T01:20:30.308Z,6.28
2023-03-27T01:23:10.471Z,7.47
2023-03-27T01:26:00.198Z,9.43
2023-03-27T01:28:44.847Z,8.30
2023-03-27T01:31:24.633Z,7.53
2023-03-27T01:34:26.445Z,5.80
2023-03-27T01:37:11.052Z,4.93
2023-03-27T01:39:51.111Z,6.00
2023-03-27T01:42:23.470Z,6.05
2023-03-27T01:44:55.062Z,5.93
2023-03-27T01:47:33.211Z,6.72
2023-03-27T01:50:08.247Z,7.43
2023-03-27T01:52:39.986Z,5.32
2023-03-27T01:55:13.265Z,5.45
2023-03-27T01:57:50.124Z,5.07
2023-03-27T02:00:22.229Z,8.00
2023-03-27T02:02:53.798Z,8.88
2023-03-27T02:05:26.128Z,6.77
2023-03-27T02:07:55.798Z,7.80
2023-03-27T02:10:28.970Z,4.73
2023-03-27T02:12:59.528Z,4.95
2023-03-27T02:15:31.591Z,7.28
2023-03-27T02:18:05.283Z,7.28
2023-03-27T02:20:33.937Z,4.40
2023-03-27T02:23:01.970Z,4.55
2023-03-27T02:25:33.162Z,7.23
2023-03-27T02:28:14.942Z,5.10
2023-03-27T02:31:06.290Z,5.43
2023-03-27T02:33:45.103Z,7.18
2023-03-27T02:36:21.102Z,6.30
2023-03-27T02:38:53.864Z,5.47
2023-03-27T02:41:27.774Z,8.65
2023-03-27T02:44:01.960Z,7.78
2023-03-27T02:46:33.599Z,5.72
2023-03-27T02:49:04.758Z,5.80
2023-03-27T02:51:35.002Z,7.95
2023-03-27T02:54:05.575Z,4.38
2023-03-27T02:56:38.482Z,4.80
2023-03-27T02:59:08.862Z,6.23
2023-03-27T03:01:37.863Z,6.80
2023-03-27T03:04:08.622Z,5.90
2023-03-27T03:06:36.589Z,6.20
2023-03-27T03:09:06.261Z,6.10
2023-03-27T03:11:38.007Z,6.95
2023-03-27T03:14:05.840Z,6.60
2023-03-27T03:16:33.919Z,7.00
2023-03-27T03:19:01.934Z,5.93
2023-03-27T03:21:29.686Z,5.57
2023-03-27T03:23:58.622Z,6.47
2023-03-27T03:26:27.728Z,4.97
2023-03-27T03:29:00.838Z,5.53
2023-03-27T03:31:42.881Z,5.45
2023-03-27T03:34:11.580Z,5.88
2023-03-27T03:36:41.923Z,5.43
2023-03-27T03:39:11.365Z,5.15
2023-03-27T03:41:39.165Z,5.68
2023-03-27T03:44:08.401Z,5.90
2023-03-27T03:46:36.200Z,6.57
2023-03-27T03:49:05.547Z,6.63
2023-03-27T03:51:33.295Z,7.97
2023-03-27T03:54:01.463Z,6.90
2023-03-27T03:56:30.577Z,6.20
2023-03-27T03:58:58.723Z,6.13
2023-03-27T04:01:28.082Z,4.70
2023-03-27T04:03:56.393Z,4.65
2023-03-27T04:06:25.552Z,6.90
2023-03-27T04:08:53.725Z,9.27
2023-03-27T04:11:21.707Z,4.85
2023-03-27T04:13:49.463Z,4.80
2023-03-27T04:16:17.291Z,5.75
2023-03-27T04:18:46.648Z,6.65
2023-03-27T04:21:15.698Z,3.57
2023-03-27T04:23:44.924Z,6.73
2023-03-27T04:26:13.427Z,5.40
2023-03-27T04:28:41.718Z,3.92
2023-03-27T04:31:10.865Z,5.97
2023-03-27T04:33:46.450Z,5.05
2023-03-27T04:36:15.883Z,5.82
2023-03-27T04:38:44.202Z,4.37
2023-03-27T04:41:11.922Z,4.10
2023-03-27T04:43:40.205Z,5.87
2023-03-27T04:46:09.161Z,5.63
2023-03-27T04:48:38.511Z,5.03
2023-03-27T04:51:08.327Z,4.82
2023-03-27T04:53:37.973Z,4.72
2023-03-27T04:56:07.175Z,5.90
2023-03-27T04:58:37.294Z,6.23
2023-03-27T05:01:05.987Z,4.78
2023-03-27T05:03:34.769Z,4.50
2023-03-27T05:06:04.013Z,3.33
2023-03-27T05:08:31.867Z,4.50
2023-03-27T05:11:01.012Z,3.58
2023-03-27T05:13:29.345Z,4.40
2023-03-27T05:15:59.317Z,5.55
2023-03-27T05:18:27.581Z,4.43
2023-03-27T05:20:57.161Z,6.28
2023-03-27T05:23:24.994Z,3.00
2023-03-27T05:25:59.668Z,3.80
2023-03-27T05:28:29.600Z,4.43
2023-03-27T05:30:57.756Z,5.15
2023-03-27T05:33:26.750Z,6.13
2023-03-27T05:35:54.534Z,5.15
2023-03-27T05:38:22.773Z,6.03
2023-03-27T05:40:52.114Z,5.43
2023-03-27T05:43:19.924Z,6.68
2023-03-27T05:45:49.430Z,4.53
2023-03-27T05:48:17.448Z,5.03
2023-03-27T05:50:45.307Z,3.50
2023-03-27T05:53:13.068Z,3.40
2023-03-27T05:55:40.945Z,4.13
2023-03-27T05:58:10.079Z,5.13
2023-03-27T06:00:38.832Z,3.95
2023-03-27T06:03:07.986Z,5.03
2023-03-27T06:05:35.843Z,6.63
2023-03-27T06:08:03.621Z,4.45
2023-03-27T06:10:33.779Z,5.28
2023-03-27T06:13:02.768Z,4.78
2023-03-27T06:15:31.084Z,4.30
2023-03-27T06:17:58.943Z,3.75
2023-03-27T06:20:28.128Z,4.43
2023-03-27T06:22:57.487Z,5.32
2023-03-27T06:25:25.926Z,4.97
2023-03-27T06:27:54.507Z,6.00
2023-03-27T06:30:24.708Z,7.23
2023-03-27T06:32:54.272Z,5.03
2023-03-27T06:35:23.724Z,5.30
2023-03-27T06:37:53.024Z,4.07
2023-03-27T06:40:22.799Z,4.75
2023-03-27T06:42:51.980Z,4.97
2023-03-27T06:45:19.723Z,4.05
2023-03-27T06:47:54.888Z,4.97
2023-03-27T06:50:25.429Z,4.70
2023-03-27T06:52:54.671Z,4.00
2023-03-27T06:55:24.234Z,3.72
2023-03-27T06:57:53.809Z,4.53
2023-03-27T07:00:24.588Z,4.93
2023-03-27T07:02:55.752Z,3.30
2023-03-27T07:05:23.842Z,5.20
2023-03-27T07:07:51.912Z,2.97
2023-03-27T07:10:21.724Z,3.42
2023-03-27T07:12:50.717Z,5.05
2023-03-27T07:15:18.965Z,5.20
2023-03-27T07:17:54.161Z,4.65
2023-03-27T07:20:22.125Z,4.18
2023-03-27T07:22:49.791Z,4.22
2023-03-27T07:25:17.528Z,5.32
2023-03-27T07:27:46.700Z,4.27
2023-03-27T07:30:15.212Z,4.13
2023-03-27T07:32:44.717Z,6.40
2023-03-27T07:35:13.139Z,4.85
2023-03-27T07:37:40.824Z,4.57
2023-03-27T07:40:13.161Z,5.67
2023-03-27T07:42:45.298Z,5.93
2023-03-27T07:45:15.070Z,7.90
2023-03-27T07:47:43.397Z,5.87
2023-03-27T07:50:13.541Z,3.58
2023-03-27T07:52:43.605Z,4.13
2023-03-27T07:55:14.208Z,4.55
2023-03-27T07:57:59.759Z,5.20
2023-03-27T08:00:31.277Z,5.03
2023-03-27T08:03:07.307Z,6.90
2023-03-27T08:05:35.350Z,5.85
2023-03-27T08:08:03.167Z,3.63
2023-03-27T08:10:30.968Z,4.90
2023-03-27T08:12:58.679Z,4.07
2023-03-27T08:15:26.408Z,7.67
2023-03-27T08:17:56.904Z,4.30
2023-03-27T08:20:24.828Z,6.03
2023-03-27T08:22:53.004Z,4.13
2023-03-27T08:25:22.378Z,4.80
2023-03-27T08:27:50.675Z,4.35
2023-03-27T08:30:19.579Z,5.93
2023-03-27T08:32:47.286Z,5.53
2023-03-27T08:35:16.788Z,7.00
2023-03-27T08:37:44.972Z,3.88
2023-03-27T08:40:19.859Z,5.50
2023-03-27T08:42:50.323Z,7.50
2023-03-27T08:45:21.143Z,4.32
2023-03-27T08:47:52.513Z,4.78
2023-03-27T08:50:31.882Z,5.03
2023-03-27T08:52:59.623Z,3.17
2023-03-27T08:55:35.937Z,1.80
2023-03-27T08:58:03.619Z,3.67
2023-03-27T09:00:35.699Z,3.10
2023-03-27T09:03:10.890Z,3.55
2023-03-27T09:05:43.660Z,2.58
2023-03-27T09:08:17.728Z,3.05
2023-03-27T09:10:46.934Z,2.55
2023-03-27T09:13:16.458Z,4.78
2023-03-27T09:15:50.038Z,4.78
2023-03-27T09:18:21.843Z,3.65
2023-03-27T09:20:54.969Z,3.33
2023-03-27T09:23:25.864Z,3.78
2023-03-27T09:25:56.671Z,5.33
2023-03-27T09:28:28.438Z,3.17
2023-03-27T09:30:57.301Z,3.50
2023-03-27T09:33:25.578Z,2.45
2023-03-27T09:35:55.209Z,3.75
2023-03-27T09:38:27.944Z,3.47
2023-03-27T09:40:59.103Z,2.53
2023-03-27T09:43:30.291Z,2.40
2023-03-27T09:45:59.913Z,3.35
2023-03-27T09:48:32.985Z,2.95
2023-03-27T09:51:02.427Z,2.38
2023-03-27T09:53:30.098Z,3.22
2023-03-27T09:56:01.080Z,3.55
2023-03-27T09:58:34.852Z,1.53
2023-03-27T10:01:15.669Z,1.25
2023-03-27T10:03:49.134Z,1.10
2023-03-27T10:06:27.932Z,0.73
2023-03-27T10:08:56.644Z,0.95
2023-03-27T10:11:27.361Z,1.90
2023-03-27T10:13:55.688Z,1.10
2023-03-27T10:16:24.238Z,0.50
2023-03-27T10:18:55.585Z,1.17
2023-03-27T10:21:29.653Z,2.23
2023-03-27T10:24:02.586Z,1.43
2023-03-27T10:26:33.036Z,2.53
2023-03-27T10:29:05.494Z,5.55
2023-03-27T10:31:34.871Z,2.13
2023-03-27T10:34:04.037Z,1.93
2023-03-27T10:36:35.144Z,2.90
2023-03-27T10:39:07.275Z,4.30
2023-03-27T10:41:37.014Z,4.13
2023-03-27T10:44:07.022Z,2.70
2023-03-27T10:46:39.582Z,3.35
2023-03-27T10:49:17.581Z,2.03
2023-03-27T10:51:50.659Z,1.83
2023-03-27T10:54:28.990Z,2.77
2023-03-27T10:57:00.111Z,2.67
2023-03-27T11:02:22.055Z,3.43
2023-03-27T11:03:47.676Z,2.53
2023-03-27T11:04:53.044Z,1.75
2023-03-27T11:07:25.610Z,1.57
2023-03-27T11:09:58.898Z,2.08
2023-03-27T11:12:28.313Z,1.77
2023-03-27T11:15:02.010Z,1.70
2023-03-27T11:17:32.897Z,1.17
2023-03-27T11:20:07.329Z,1.33
2023-03-27T11:22:40.787Z,3.17
2023-03-27T11:25:18.412Z,2.75
2023-03-27T11:27:51.229Z,2.90
2023-03-27T11:30:29.272Z,1.88
2023-03-27T11:33:06.036Z,1.73
2023-03-27T11:35:37.615Z,2.42
2023-03-27T11:38:09.511Z,4.18
2023-03-27T11:40:39.264Z,2.63
2023-03-27T11:43:07.112Z,3.00
2023-03-27T11:45:41.466Z,2.50
2023-03-27T11:48:32.949Z,4.43
2023-03-27T11:51:02.953Z,3.78
2023-03-27T11:54:05.482Z,3.72
2023-03-27T11:56:43.561Z,3.67
2023-03-27T11:59:41.602Z,3.55
2023-03-27T12:02:22.045Z,6.40
2023-03-27T12:04:53.234Z,4.73
2023-03-27T12:07:35.801Z,3.23
2023-03-27T12:10:23.484Z,4.25
2023-03-27T12:13:28.785Z,4.25
2023-03-27T12:16:12.280Z,5.30
2023-03-27T12:21:29.337Z,4.55
2023-03-27T12:24:19.595Z,3.65
2023-03-27T12:27:07.840Z,2.72
2023-03-27T12:29:51.940Z,4.82
2023-03-27T12:32:28.265Z,4.05
2023-03-27T12:34:58.988Z,1.73
2023-03-27T12:37:31.070Z,2.08
2023-03-27T12:40:00.127Z,0.90
2023-03-27T12:42:44.575Z,1.55
2023-03-27T12:45:18.099Z,1.70
2023-03-27T12:47:47.518Z,3.20
2023-03-27T12:50:20.564Z,0.93
2023-03-27T12:52:48.283Z,1.10
2023-03-27T12:55:33.976Z,1.75
2023-03-27T12:58:05.297Z,1.50
2023-03-27T13:00:34.261Z,2.45
2023-03-27T13:03:17.284Z,1.92
2023-03-27T13:06:22.570Z,2.92
2023-03-27T13:09:10.437Z,2.80
2023-03-27T13:11:50.382Z,3.15
2023-03-27T13:14:46.646Z,1.90
2023-03-27T13:17:29.219Z,1.00
2023-03-27T13:20:07.830Z,1.63
2023-03-27T13:22:45.611Z,3.88
2023-03-27T13:25:21.738Z,2.30
2023-03-27T13:28:04.772Z,4.38
2023-03-27T13:30:48.708Z,2.40
2023-03-27T13:33:18.180Z,2.80
2023-03-27T13:36:03.198Z,3.42
2023-03-27T13:38:49.158Z,3.97
2023-03-27T13:42:06.139Z,1.93
2023-03-27T13:44:42.604Z,1.90
2023-03-27T13:47:40.482Z,2.47
2023-03-27T13:50:21.010Z,2.37
2023-03-27T13:53:13.323Z,2.75
2023-03-27T13:56:10.556Z,2.63
2023-03-27T13:59:03.674Z,3.00
2023-03-27T14:01:40.593Z,3.13
2023-03-27T14:04:38.690Z,4.30
2023-03-27T14:07:48.644Z,4.22
2023-03-27T14:10:25.337Z,2.78
2023-03-27T14:13:04.573Z,3.03
2023-03-27T14:15:56.191Z,5.03
2023-03-27T14:18:44.939Z,2.10
2023-03-27T14:21:27.563Z,3.92
2023-03-27T14:24:08.709Z,4.47
2023-03-27T14:26:38.091Z,3.75
2023-03-27T14:29:06.990Z,4.63
2023-03-27T14:31:35.861Z,3.90
2023-03-27T14:34:06.358Z,3.40
2023-03-27T14:36:36.128Z,4.15
2023-03-27T14:39:08.368Z,4.22
2023-03-27T14:41:36.146Z,3.80
2023-03-27T14:44:05.841Z,4.17
2023-03-27T14:46:34.133Z,2.50
2023-03-27T14:49:02.093Z,3.30
2023-03-27T14:51:41.839Z,2.70
2023-03-27T14:54:13.312Z,4.30
2023-03-27T14:56:47.241Z,3.60
2023-03-27T14:59:19.835Z,3.50
2023-03-27T15:01:48.441Z,4.10
2023-03-27T15:04:16.301Z,2.75
2023-03-27T15:06:50.004Z,2.67
2023-03-27T15:09:20.108Z,2.92
2023-03-27T15:11:50.010Z,3.35
2023-03-27T15:14:20.788Z,2.65
2023-03-27T15:16:52.862Z,3.03
2023-03-27T15:19:21.962Z,2.63
2023-03-27T15:21:57.012Z,3.13
2023-03-27T15:24:32.791Z,4.32
2023-03-27T15:27:01.502Z,3.30
2023-03-27T15:29:39.203Z,4.00
2023-03-27T15:32:11.136Z,4.50
2023-03-27T15:34:46.026Z,4.72
2023-03-27T15:37:18.614Z,3.75
2023-03-27T15:40:01.596Z,4.13
2023-03-27T15:42:35.077Z,1.92
2023-03-27T15:45:03.740Z,2.38
2023-03-27T15:47:32.846Z,2.88
2023-03-27T15:50:16.717Z,3.35
2023-03-27T15:52:50.832Z,5.23
2023-03-27T15:55:33.056Z,3.70
2023-03-27T16:00:16.153Z,3.78
2023-03-27T16:02:43.953Z,2.53
2023-03-27T16:05:17.408Z,4.13
2023-03-27T16:07:47.154Z,4.90
2023-03-27T16:10:15.989Z,3.60
2023-03-27T16:12:51.280Z,3.75
2023-03-27T16:15:31.498Z,3.90
2023-03-27T16:18:00.240Z,4.22
2023-03-27T16:20:40.955Z,4.40
2023-03-27T16:23:08.821Z,4.50
2023-03-27T16:25:36.720Z,5.88
2023-03-27T16:28:04.512Z,4.97
2023-03-27T16:30:36.076Z,4.50
2023-03-27T16:33:04.446Z,8.07
2023-03-27T16:35:33.901Z,4.78
2023-03-27T16:38:02.007Z,5.57
2023-03-27T16:40:29.654Z,4.32
2023-03-27T16:42:57.538Z,4.38
2023-03-27T16:45:25.497Z,5.57
2023-03-27T16:47:54.829Z,3.88
2023-03-27T16:50:26.688Z,6.00
2023-03-27T16:52:54.507Z,3.97
2023-03-27T16:55:22.183Z,4.70
2023-03-27T16:57:52.309Z,4.75
2023-03-27T17:00:20.798Z,4.78
2023-03-27T17:02:48.717Z,4.90
2023-03-27T17:05:17.917Z,3.55
2023-03-27T17:07:46.800Z,2.38
2023-03-27T17:10:14.704Z,3.08
2023-03-27T17:12:42.511Z,5.03
2023-03-27T17:15:10.692Z,4.70
2023-03-27T17:17:38.439Z,5.07
2023-03-27T17:20:07.764Z,3.08
2023-03-27T17:22:37.102Z,3.97
2023-03-27T17:25:06.058Z,5.45
2023-03-27T17:27:33.979Z,4.90
2023-03-27T17:30:01.699Z,3.53
2023-03-27T17:32:29.414Z,6.45
2023-03-27T17:34:57.222Z,4.95
2023-03-27T17:37:25.898Z,5.07
2023-03-27T17:39:55.024Z,4.75
2023-03-27T17:42:22.897Z,4.93
2023-03-27T17:44:50.725Z,6.30
2023-03-27T17:47:18.486Z,5.88
2023-03-27T17:49:46.160Z,3.33
2023-03-27T17:52:14.160Z,4.72
2023-03-27T17:54:41.942Z,6.32
2023-03-27T17:57:11.017Z,5.40
2023-03-27T17:59:38.767Z,4.28
2023-03-27T18:02:07.153Z,5.18
2023-03-27T18:04:35.286Z,4.57
2023-03-27T18:07:03.125Z,3.55
2023-03-27T18:09:31.280Z,4.93
2023-03-27T18:11:59.054Z,4.20
2023-03-27T18:14:28.354Z,8.35
2023-03-27T18:16:56.102Z,4.22
2023-03-27T18:19:24.083Z,5.20
2023-03-27T18:21:51.859Z,4.20
2023-03-27T18:24:19.603Z,2.83
2023-03-27T18:26:48.143Z,5.07
2023-03-27T18:29:15.918Z,5.63
2023-03-27T18:31:45.141Z,3.85
2023-03-27T18:34:12.913Z,3.72
2023-03-27T18:36:40.795Z,4.97
2023-03-27T18:39:08.527Z,4.53
2023-03-27T18:41:36.574Z,3.05
2023-03-27T18:44:04.362Z,3.65
2023-03-27T18:46:32.186Z,4.32
2023-03-27T18:49:10.275Z,5.47
2023-03-27T18:51:45.510Z,5.65
2023-03-27T18:54:13.668Z,5.90
2023-03-27T18:56:41.503Z,4.05
2023-03-27T18:59:10.194Z,4.00
2023-03-27T19:01:38.973Z,5.33
2023-03-27T19:04:08.540Z,4.50
2023-03-27T19:06:36.618Z,6.50
2023-03-27T19:09:05.598Z,6.95
2023-03-27T19:11:33.337Z,6.77
2023-03-27T19:14:01.006Z,6.50
2023-03-27T19:16:28.723Z,6.65
2023-03-27T19:18:56.467Z,8.35
2023-03-27T19:21:25.591Z,8.25
2023-03-27T19:23:53.341Z,6.70
2023-03-27T19:26:21.091Z,6.72
2023-03-27T19:28:48.753Z,4.95
2023-03-27T19:31:16.997Z,6.20
2023-03-27T19:33:45.722Z,5.05
2023-03-27T19:36:13.583Z,7.22
2023-03-27T19:38:42.893Z,6.45
2023-03-27T19:41:11.042Z,9.77
2023-03-27T19:43:38.848Z,6.28
2023-03-27T19:46:15.760Z,6.63
2023-03-27T19:48:47.388Z,6.45
2023-03-27T19:51:15.451Z,5.30
2023-03-27T19:53:44.538Z,3.85
2023-03-27T19:56:12.320Z,6.70
2023-03-27T19:58:40.009Z,7.00
2023-03-27T20:01:07.697Z,6.60
2023-03-27T20:03:38.602Z,5.35
2023-03-27T20:06:12.282Z,5.30
2023-03-27T20:08:44.446Z,8.75
2023-03-27T20:11:12.186Z,8.17
2023-03-27T20:13:53.237Z,7.30
2023-03-27T20:16:25.000Z,3.78
2023-03-27T20:19:03.208Z,6.22
2023-03-27T20:21:32.404Z,5.20
2023-03-27T20:24:01.550Z,5.22
2023-03-27T20:26:29.938Z,3.58
2023-03-27T20:28:57.855Z,4.20
2023-03-27T20:31:25.697Z,5.22
2023-03-27T20:33:53.506Z,4.55
2023-03-27T20:36:23.179Z,6.00
2023-03-27T20:38:52.658Z,11.57
2023-03-27T20:41:21.868Z,6.95
2023-03-27T20:43:50.923Z,5.25
2023-03-27T20:46:18.788Z,4.38
2023-03-27T20:48:54.083Z,4.65
2023-03-27T20:51:24.070Z,7.07
2023-03-27T20:53:55.837Z,7.75
2023-03-27T20:56:25.760Z,7.20
2023-03-27T20:58:53.503Z,6.43
2023-03-27T21:01:27.278Z,5.97
2023-03-27T21:03:58.455Z,6.03
2023-03-27T21:06:26.472Z,8.40
2023-03-27T21:08:54.259Z,5.70
2023-03-27T21:11:22.039Z,7.20
2023-03-27T21:13:51.507Z,7.07
2023-03-27T21:16:19.274Z,6.70
2023-03-27T21:18:47.003Z,6.72
2023-03-27T21:21:14.683Z,6.50
2023-03-27T21:23:42.404Z,4.95
2023-03-27T21:26:10.098Z,7.97
2023-03-27T21:28:37.766Z,4.75
2023-03-27T21:31:08.999Z,4.25
2023-03-27T21:33:36.842Z,7.40
2023-03-27T21:36:04.922Z,6.20
2023-03-27T21:38:32.748Z,6.72
2023-03-27T21:41:02.307Z,5.72
2023-03-27T21:43:30.239Z,6.90
2023-03-27T21:46:00.201Z,4.47
2023-03-27T21:48:29.576Z,7.13
2023-03-27T21:51:00.081Z,5.85
2023-03-27T21:53:27.774Z,4.93
2023-03-27T21:55:56.527Z,5.80
2023-03-27T21:58:24.837Z,5.97
2023-03-27T22:00:52.828Z,6.07
2023-03-27T22:03:20.614Z,7.63
2023-03-27T22:06:01.026Z,6.68
2023-03-27T22:08:38.180Z,6.55
2023-03-27T22:11:06.621Z,6.47
2023-03-27T22:13:35.901Z,5.95
2023-03-27T22:16:07.653Z,7.23
2023-03-27T22:18:35.391Z,7.40
2023-03-27T22:21:14.652Z,9.00
2023-03-27T22:23:42.538Z,5.22
2023-03-27T22:26:10.284Z,5.85
2023-03-27T22:28:38.117Z,5.85
2023-03-27T22:31:06.247Z,7.63
2023-03-27T22:33:34.002Z,6.90
2023-03-27T22:36:01.997Z,4.90
2023-03-27T22:38:31.594Z,7.10
2023-03-27T22:40:59.584Z,5.90
2023-03-27T22:43:29.610Z,6.93
2023-03-27T22:45:58.095Z,9.43
2023-03-27T22:48:25.951Z,7.88
2023-03-27T22:50:57.278Z,5.28
2023-03-27T22:53:25.769Z,6.90
2023-03-27T22:55:57.036Z,6.32
2023-03-27T22:58:25.850Z,6.28
2023-03-27T23:00:54.871Z,6.65
2023-03-27T23:03:23.213Z,6.72
2023-03-27T23:05:51.809Z,4.97
2023-03-27T23:08:20.897Z,5.97
2023-03-27T23:10:57.292Z,7.43
2023-03-27T23:13:25.482Z,7.27
2023-03-27T23:15:53.237Z,6.82
2023-03-27T23:18:23.811Z,7.00
2023-03-27T23:20:55.004Z,8.52
2023-03-27T23:23:22.905Z,7.18
2023-03-27T23:25:50.928Z,7.38
2023-03-27T23:28:20.177Z,7.38
2023-03-27T23:30:53.864Z,7.47
2023-03-27T23:33:22.652Z,7.63
2023-03-27T23:35:50.577Z,8.98
2023-03-27T23:38:18.591Z,6.77
2023-03-27T23:40:46.294Z,6.93
2023-03-27T23:43:13.948Z,6.88
2023-03-27T23:45:43.914Z,7.50
2023-03-27T23:48:11.712Z,6.75
2023-03-27T23:50:39.471Z,5.63
2023-03-27T23:53:07.258Z,7.10
2023-03-27T23:55:34.996Z,6.22
2023-03-27T23:58:02.697Z,6.17
